Tiempo atmosférico en la estación meteorológica de Autilla del Pino, Palencia (874 m.)



Fecha
DESCASC
Temp. máxima en grados centígrados (hora)
DESCASC
Temp. mínima en grados centígrados (hora)
DESCASC
Temp. media en grados centígrados
DESCASC
Racha de viento máxima en m/sg (hora)
DESCASC
Velocidad máxima media en intervalos de 10 minutos(hora)
DESCASC
Precipitaciones diarias en mm
DESCASC
Precipitaciones de 00:00 a 06:00 en mm
DESCASC
Precipitaciones de 06:00 a 12:00 en mm
DESCASC
Precipitaciones de 12:00 a 18:00 en mm
DESCASC
Precipitaciones de 18:00 a 24:00 en mm
DESCASC
18-04-2019 9.3 (15:00) 7 (07:30) 8.2 7.22 (12:50) 5 (12:50) 6.4 1.7 0 3.8 0.9
17-04-2019 18.3 (18:20) 7 (04:00) 12.6 12.22 (18:10) 8.61 (18:00) 0.4 0 0 0 0.4
16-04-2019 18.9 (18:20) 0.2 (00:00) 9.5 7.22 (12:50) 4.17 (00:20) 0 0 0 0 0
15-04-2019 20.3 (13:40) 5.9 (00:00) 13.1 18.06 (17:40) 13.61 (16:50) 0.7 0 0 0.7 0
14-04-2019 21.8 (18:20) 6.2 (00:00) 14 9.72 (02:40) 6.67 (02:40) 0 0 0 0 0
13-04-2019 19.2 (18:10) 1.2 (00:00) 10.2 10.56 (15:20) 5.28 (23:20) 0 0 0 0 0
12-04-2019 16.1 (18:30) -0.5 (-00:0) 7.8 8.33 (01:20) 5 (01:20) 0 0 0 0 0
11-04-2019 13.9 (18:10) -0.5 (-00:0) 6.7 8.06 (21:40) 5.83 (22:00) 0 0 0 0 0
10-04-2019 12.3 (18:20) 1.5 (00:00) 6.9 12.5 (18:40) 8.06 (02:50) 1.5 0 0.1 1.4 0
09-04-2019 10.6 (17:50) 1.1 (00:00) 5.9 21.39 (10:40) 9.72 (18:50) 1 0 0 1 0
08-04-2019 12.8 (18:10) 3.9 (00:00) 8.4 14.44 (12:00) 8.06 (18:50) 0.5 0.5 0 0 0
07-04-2019 10.2 (15:30) -0.7 (-00:0) 4.7 12.22 (17:50) 8.33 (01:10) 2.1 0 0 0 2.1
06-04-2019 7.8 (15:50) 0.2 (00:00) 4 16.11 (16:20) 11.67 (15:50) 2.5 0 0.1 0 2.4
05-04-2019 8.5 (17:50) 1 (00:00) 4.8 12.22 (03:40) 8.89 (03:30) 2.5 1.2 1 0.2 0.1
04-04-2019 -- (--) -- (--) -- -- (--) -- (--) -- -- -- -- 0.8
03-04-2019 -- (--) -- (--) -- -- (--) -- (--) -- -- -- -- --
02-04-2019 -- (--) -- (--) -- -- (--) -- (--) -- -- -- -- --
01-04-2019 -- (--) -- (--) -- -- (--) -- (--) -- -- -- -- --
31-03-2019 -- (--) -- (--) -- -- (--) -- (--) -- -- -- -- --
30-03-2019 -- (--) -- (--) -- -- (--) -- (--) -- -- -- -- --
29-03-2019 -- (--) -- (--) -- -- (--) -- (--) -- -- -- -- --
28-03-2019 23.5 (13:40) 20 (00:00) 21.8 8.89 (10:20) 1.94 (13:50) 3.1 0 0.2 2.9 0
27-03-2019 -- (--) -- (--) -- -- (--) -- (--) -- 0 0 -- --
26-03-2019 -- (--) -- (--) -- 15.28 (10:30) 11.39 (10:30) 0 0 0 0 0
25-03-2019 13 (16:30) 1.9 (00:00) 7.4 13.89 (17:10) 10.28 (17:20) 0 0 0 0 0
24-03-2019 20.2 (17:00) 3.8 (00:00) 12 11.67 (23:30) 8.61 (23:30) 0 0 0 0 0
23-03-2019 19.4 (17:20) 1.4 (00:00) 10.4 6.94 (03:10) 5.56 (03:30) 0 0 0 0 0
22-03-2019 16.4 (17:10) -1 (-00:0) 7.7 6.11 (00:30) 5 (00:30) 0 0 0 0 0
21-03-2019 13.5 (17:10) -1.9 (-00:0) 5.8 9.17 (12:40) 7.22 (04:40) 0 0 0 0 0

Gráficas

Temp. máximas Temp. mínimas Temp. medias Precipitaciones Rachas de viento máximas Velocidades máximas media en intervalos de 10 minutos

Datos horarios

Fecha y hora oficial Temperatura (ºC) Velocidad del viento (km/h) Dirección del viento Racha (km/h) Dirección de racha Precipitación (mm) Presión (hPa) Tendencia (hPa) Humedad (%)
2019-04-19 23:00:00 11.1 15 Este 24 Este 0 -- -- 61
2019-04-19 22:00:00 11.3 15 Este 32 Este 0 -- -- 61
2019-04-19 21:00:00 11.5 22 Este 33 Este 0 -- -- 65
2019-04-19 20:00:00 11.5 19 Este 29 Nordeste 0 -- -- 72
2019-04-19 19:00:00 12.4 18 Nordeste 33 Nordeste 0 -- -- 72
2019-04-19 18:00:00 12.3 16 Nordeste 27 Nordeste 0 -- -- 72
2019-04-19 17:00:00 10.3 17 Nordeste 35 Este 0 -- -- 84
2019-04-19 16:00:00 9.4 25 Este 41 Este 0 -- -- 86
2019-04-19 15:00:00 9.3 22 Este 37 Este 0 -- -- 91
2019-04-19 14:00:00 10.7 27 Este 39 Este 0 -- -- 74
2019-04-19 13:00:00 10.8 22 Este 35 Este 0 -- -- 76
2019-04-19 12:00:00 10.6 21 Este 36 Sudeste 0 -- -- 80
2019-04-19 11:00:00 8.9 20 Este 33 Este 0 -- -- 89
2019-04-19 10:00:00 8.6 22 Este 33 Este 0 -- -- 88
2019-04-19 09:00:00 7.4 21 Este 29 Este 0 -- -- 93
2019-04-19 08:00:00 7 13 Este 23 Sudeste 0 -- -- 91
2019-04-19 07:00:00 7 16 Este 29 Este 0 -- -- 91
2019-04-19 06:00:00 6.7 15 Este 29 Este 0 -- -- 92
2019-04-19 05:00:00 6.8 19 Sudeste 29 Sudeste 0 -- -- 92
2019-04-19 04:00:00 7 19 Este 31 Sudeste 0 -- -- 93
2019-04-19 03:00:00 7.2 21 Este 37 Este 0.1 -- -- 97
2019-04-19 02:00:00 7.1 16 Nordeste 24 Nordeste 0.8 -- -- 98
2019-04-19 01:00:00 7.4 10 Nordeste 17 Nordeste 0.7 -- -- 98
2019-04-19 00:00:00 7.9 12 Nordeste 17 Nordeste 0.6 -- -- 98
2019-04-18 23:00:00 7.9 9 Nordeste 13 Nordeste 0 -- -- 97
2019-04-18 22:00:00 7.6 10 Nordeste 16 Nordeste 0 -- -- 96
2019-04-18 21:00:00 8.1 10 Este 14 Este 0 -- -- 96
2019-04-18 20:00:00 8 7 Este 16 Sudeste 0.2 -- -- 96
2019-04-18 19:00:00 7.9 12 Este 15 Nordeste 0.1 -- -- 92
2019-04-18 18:00:00 8.2 9 Nordeste 16 Norte 0 -- -- 89
2019-04-18 17:00:00 8.1 10 Nordeste 16 Este 0.2 -- -- 87
2019-04-18 16:00:00 8.5 14 Este 20 Este 0 -- -- 84
2019-04-18 15:00:00 9 13 Este 26 Este 0 -- -- 87
2019-04-18 14:00:00 8.6 10 Este 19 Este 1.6 -- -- 95
2019-04-18 13:00:00 7.5 15 Este 26 Este 2 -- -- 94
2019-04-18 12:00:00 9.1 8 Este 19 Este 0 -- -- 89
2019-04-18 11:00:00 8.3 12 Este 17 Sudeste 0 -- -- 95
2019-04-18 10:00:00 7.8 9 Este 14 Este 0 -- -- 98
2019-04-18 09:00:00 7.4 5 Sudeste 11 Sudeste 0 -- -- 98
2019-04-18 08:00:00 7.1 6 Este 9 Sudeste 0 -- -- 98
2019-04-18 07:00:00 7.4 2 Sudeste 9 Sur 0 -- -- 97
2019-04-18 06:00:00 7.3 0 Calma 9 Sur 0 -- -- 97
2019-04-18 05:00:00 7.3 8 Sur 25 Sudoeste 0.1 -- -- 97
2019-04-18 04:00:00 7.5 16 Sudoeste 23 Sudoeste 0.4 -- -- 97
2019-04-18 03:00:00 7.7 14 Sudoeste 25 Sudoeste 1.2 -- -- 97
2019-04-18 02:00:00 9 11 Sudoeste 19 Sudoeste 0 -- -- 89
2019-04-18 01:00:00 8.9 7 Oeste 21 Oeste 0 -- -- 90
2019-04-18 00:00:00 8.5 10 Noroeste 32 Noroeste 0 -- -- 90
2019-04-17 23:00:00 12.7 18 Sur 29 Sur 0 -- -- 73
2019-04-17 22:00:00 13.3 11 Sur 25 Sur 0 -- -- 71
2019-04-17 21:00:00 13.6 8 Sudeste 23 Sudoeste 0 -- -- 71
2019-04-17 20:00:00 13.2 24 Sudoeste 42 Sur 0.4 -- -- 72
2019-04-17 19:00:00 16.6 23 Sur 44 Sur 0 -- -- 48
2019-04-17 18:00:00 17.9 31 Sur 42 Sur 0 -- -- 41
2019-04-17 17:00:00 17.6 26 Sur 39 Sur 0 -- -- 41
2019-04-17 16:00:00 17.9 18 Sur 34 Sur 0 -- -- 42
2019-04-17 15:00:00 16.7 10 Sudeste 21 Sur 0 -- -- 52
2019-04-17 14:00:00 15.4 15 Sur 27 Sur 0 -- -- 54
2019-04-17 13:00:00 13.9 10 Sur 27 Sudeste 0 -- -- 62
2019-04-17 12:00:00 11.9 21 Sudeste 27 Sudeste 0 -- -- 72
2019-04-17 11:00:00 10.6 17 Sudeste 23 Sudeste 0 -- -- 77
2019-04-17 10:00:00 9.9 18 Sudeste 28 Sudeste 0 -- -- 77
2019-04-17 09:00:00 9 13 Sudeste 23 Sudeste 0 -- -- 76
2019-04-17 08:00:00 8.1 10 Sudeste 19 Sudeste 0 -- -- 77
2019-04-17 07:00:00 8.1 8 Sudeste 17 Sur 0 -- -- 76
2019-04-17 06:00:00 7.8 6 Sudeste 23 Sudeste 0 -- -- 75
2019-04-17 05:00:00 9 12 Sudeste 30 Sudeste 0 -- -- 68
2019-04-17 04:00:00 7.5 15 Sudeste 19 Este 0 -- -- 70
2019-04-17 03:00:00 7.6 15 Este 21 Sudeste 0 -- -- 64
2019-04-17 02:00:00 10.5 7 Sudeste 17 Sudeste 0 -- -- 55
2019-04-17 01:00:00 10.9 7 Sudeste 15 Sudeste 0 -- -- 54
2019-04-17 00:00:00 10.1 12 Este 17 Sudeste 0 -- -- 58
2019-04-16 23:00:00 11.9 11 Sudeste 15 Sudeste 0 -- -- 52
2019-04-16 22:00:00 10.9 12 Este 13 Este 0 -- -- 57
2019-04-16 21:00:00 12.6 9 Este 10 Este 0 -- -- 51
2019-04-16 20:00:00 16.1 8 Este 21 Este 0 -- -- 41
2019-04-16 19:00:00 17.4 12 Este 18 Sudeste 0 -- -- 36
2019-04-16 18:00:00 17.4 9 Sur 21 Sur 0 -- -- 35
2019-04-16 17:00:00 16.5 8 Sur 23 Sudoeste 0 -- -- 36
2019-04-16 16:00:00 15.4 10 Sur 21 Sur 0 -- -- 37
2019-04-16 15:00:00 15.3 10 Sur 22 Sudeste 0 -- -- 39
2019-04-16 14:00:00 14.6 7 Sudeste 19 Sudeste 0 -- -- 45
2019-04-16 13:00:00 13.5 10 Sudeste 26 Este 0 -- -- 49
2019-04-16 12:00:00 12.2 5 Sudeste 14 Este 0 -- -- 59
2019-04-16 11:00:00 9.6 3 Sudoeste 8 Sudeste 0 -- -- 70
2019-04-16 10:00:00 7.1 3 Sur 8 Oeste 0 -- -- 85
2019-04-16 09:00:00 4.9 2 Oeste 12 Sudoeste 0 -- -- 95
2019-04-16 08:00:00 1.6 12 Oeste 14 Sudoeste 0 -- -- 97
2019-04-16 07:00:00 1.1 8 Sudoeste 14 Sudoeste 0 -- -- 97
2019-04-16 06:00:00 2.3 6 Sudoeste 12 Oeste 0 -- -- 96
2019-04-16 05:00:00 2.3 9 Oeste 14 Oeste 0 -- -- 94
2019-04-16 04:00:00 3.4 10 Oeste 17 Oeste 0 -- -- 91
2019-04-16 03:00:00 3.4 13 Oeste 15 Oeste 0 -- -- 89
2019-04-16 02:00:00 4.6 13 Oeste 17 Oeste 0 -- -- 87
2019-04-16 01:00:00 5.6 14 Oeste 21 Oeste 0 -- -- 85
2019-04-16 00:00:00 7.4 13 Oeste 17 Oeste 0 -- -- 85
2019-04-15 23:00:00 6.8 10 Oeste 22 Oeste 0 -- -- 81
2019-04-15 22:00:00 10.4 23 Oeste 34 Oeste 0 -- -- 63
2019-04-15 21:00:00 11 23 Oeste 49 Oeste 0 -- -- 60
2019-04-15 20:00:00 12 31 Oeste 56 Oeste 0 -- -- 57
2019-04-15 19:00:00 12.6 40 Oeste 56 Oeste 0 -- -- 52
2019-04-15 18:00:00 14.3 45 Oeste 65 Oeste 0 -- -- 53
2019-04-15 17:00:00 15.7 46 Oeste 64 Oeste 0 -- -- 55
2019-04-15 16:00:00 17.6 37 Oeste 55 Oeste 0 -- -- 56
2019-04-15 15:00:00 14.8 10 Oeste 42 Oeste 0.7 -- -- 79
2019-04-15 14:00:00 15.9 30 Sudoeste 49 Sudoeste 0 -- -- 65
2019-04-15 13:00:00 17.6 24 Sur 33 Sudoeste 0 -- -- 58
2019-04-15 12:00:00 15.8 22 Sur 31 Sur 0 -- -- 68
2019-04-15 11:00:00 14.2 16 Sur 21 Sur 0 -- -- 73
2019-04-15 10:00:00 13.4 5 Sudeste 13 Sudeste 0 -- -- 77
2019-04-15 09:00:00 11.4 6 Sudeste 18 Sur 0 -- -- 82
2019-04-15 08:00:00 9.8 10 Sur 19 Sur 0 -- -- 87
2019-04-15 07:00:00 10 9 Sur 15 Sur 0 -- -- 86
2019-04-15 06:00:00 10 4 Sur 12 Sur 0 -- -- 84
2019-04-15 05:00:00 11.2 9 Sudeste 12 Sudeste 0 -- -- 78
2019-04-15 04:00:00 11.5 0 Calma 9 Sudeste 0 -- -- 77
2019-04-15 03:00:00 11.6 10 Sudeste 12 Sudeste 0 -- -- 78
2019-04-15 02:00:00 11.4 5 Sur 6 Sudeste 0 -- -- 75
2019-04-15 01:00:00 13.2 4 Sudeste 10 Oeste 0 -- -- 72
2019-04-15 00:00:00 11.5 11 Oeste 14 Oeste 0 -- -- 78
2019-04-14 23:00:00 12.3 10 Oeste 17 Oeste 0 -- -- 72
2019-04-14 22:00:00 13.3 13 Oeste 15 Oeste 0 -- -- 68
2019-04-14 21:00:00 15.4 9 Oeste 12 Oeste 0 -- -- 58
2019-04-14 20:00:00 18.2 3 Sudoeste 9 Noroeste 0 -- -- 49
2019-04-14 19:00:00 19.7 5 Noroeste 12 Noroeste 0 -- -- 45
2019-04-14 18:00:00 19.5 4 Noroeste 15 Noroeste 0 -- -- 45
2019-04-14 17:00:00 18.9 3 Norte 15 Norte 0 -- -- 47
2019-04-14 16:00:00 18.6 11 Oeste 21 Sudoeste 0 -- -- 48
2019-04-14 15:00:00 17.4 10 Oeste 22 Oeste 0 -- -- 52
2019-04-14 14:00:00 16.2 12 Oeste 23 Oeste 0 -- -- 54
2019-04-14 13:00:00 15.4 8 Sudoeste 18 Noroeste 0 -- -- 62
2019-04-14 12:00:00 15 10 Sudoeste 19 Oeste 0 -- -- 67
2019-04-14 11:00:00 13.1 8 Oeste 18 Sudoeste 0 -- -- 79
2019-04-14 10:00:00 10.5 13 Sudoeste 19 Oeste 0 -- -- 93
2019-04-14 09:00:00 8.2 10 Sudoeste 14 Sudoeste 0 -- -- 98
2019-04-14 08:00:00 6.2 9 Sudoeste 13 Sudoeste 0 -- -- 97
2019-04-14 07:00:00 7.8 9 Sudoeste 25 Oeste 0 -- -- 95
2019-04-14 06:00:00 9 15 Oeste 27 Oeste 0 -- -- 92
2019-04-14 05:00:00 10.1 22 Oeste 32 Oeste 0 -- -- 88
2019-04-14 04:00:00 11 21 Oeste 28 Oeste 0 -- -- 80
2019-04-14 03:00:00 11.2 19 Oeste 35 Oeste 0 -- -- 72
2019-04-14 02:00:00 11.8 21 Oeste 27 Oeste 0 -- -- 64
2019-04-14 01:00:00 11.6 22 Oeste 30 Oeste 0 -- -- 62
2019-04-14 00:00:00 11.3 18 Oeste 26 Oeste 0 -- -- 58
2019-04-13 23:00:00 11.9 17 Oeste 24 Oeste 0 -- -- 55
2019-04-13 22:00:00 10.9 10 Oeste 15 Oeste 0 -- -- 48
2019-04-13 21:00:00 13.4 8 Oeste 17 Oeste 0 -- -- 41
2019-04-13 20:00:00 16.6 13 Oeste 24 Oeste 0 -- -- 33
2019-04-13 19:00:00 17.5 17 Oeste 26 Oeste 0 -- -- 32
2019-04-13 18:00:00 18.4 16 Oeste 27 Oeste 0 -- -- 32
2019-04-13 17:00:00 17.7 12 Noroeste 24 Noroeste 0 -- -- 34
2019-04-13 16:00:00 17.4 9 Oeste 38 Sudoeste 0 -- -- 36
2019-04-13 15:00:00 16.2 11 Noroeste 23 Noroeste 0 -- -- 36
2019-04-13 14:00:00 15.7 10 Sudoeste 21 Oeste 0 -- -- 41
2019-04-13 13:00:00 14.6 7 Oeste 14 Sudoeste 0 -- -- 43
2019-04-13 12:00:00 12.9 6 Sudoeste 14 Sudoeste 0 -- -- 42
2019-04-13 11:00:00 11.4 8 Sur 14 Sur 0 -- -- 52
2019-04-13 10:00:00 8.2 6 Sur 10 Sudoeste 0 -- -- 71
2019-04-13 09:00:00 4.1 5 Sudeste 13 Sudoeste 0 -- -- 85
2019-04-13 08:00:00 3.7 8 Sudeste 12 Sudeste 0 -- -- 78
2019-04-13 07:00:00 3.1 10 Este 12 Este 0 -- -- 78
2019-04-13 06:00:00 2.8 11 Este 13 Este 0 -- -- 78
2019-04-13 05:00:00 3 9 Este 12 Este 0 -- -- 73
2019-04-13 04:00:00 4.7 6 Este 9 Este 0 -- -- 67
2019-04-13 03:00:00 5.3 5 Sudeste 9 Sudeste 0 -- -- 62
2019-04-13 02:00:00 5.6 8 Sudeste 9 Sudeste 0 -- -- 60
2019-04-13 01:00:00 4 9 Este 15 Este 0 -- -- 62
2019-04-13 00:00:00 6 9 Este 15 Este 0 -- -- 51
2019-04-12 23:00:00 8.2 6 Oeste 9 Oeste 0 -- -- 45
2019-04-12 22:00:00 8 4 Oeste 7 Oeste 0 -- -- 41
2019-04-12 21:00:00 10.5 5 Nordeste 8 Nordeste 0 -- -- 38
2019-04-12 20:00:00 13.5 4 Nordeste 12 Nordeste 0 -- -- 34
2019-04-12 19:00:00 13.8 6 Norte 15 Norte 0 -- -- 35
2019-04-12 18:00:00 14.6 4 Norte 16 Nordeste 0 -- -- 36
2019-04-12 17:00:00 13.5 5 Norte 21 Norte 0 -- -- 38
2019-04-12 16:00:00 12.2 7 Norte 19 Noroeste 0 -- -- 44
2019-04-12 15:00:00 11.5 9 Norte 22 Noroeste 0 -- -- 48
2019-04-12 14:00:00 9.8 12 Noroeste 25 Noroeste 0 -- -- 53
2019-04-12 13:00:00 8.9 10 Norte 18 Norte 0 -- -- 55
2019-04-12 12:00:00 7.8 9 Norte 19 Nordeste 0 -- -- 66
2019-04-12 11:00:00 6.4 13 Nordeste 21 Nordeste 0 -- -- 74
2019-04-12 10:00:00 4.5 10 Nordeste 14 Nordeste 0 -- -- 88
2019-04-12 09:00:00 2.1 4 Norte 9 Este 0 -- -- 97
2019-04-12 08:00:00 -0.4 8 Este 11 Este 0 -- -- 97
2019-04-12 07:00:00 0.2 9 Este 16 Este 0 -- -- 94
2019-04-12 06:00:00 1 12 Este 20 Este 0 -- -- 94
2019-04-12 05:00:00 1.8 13 Este 21 Este 0 -- -- 94
2019-04-12 04:00:00 2.4 15 Este 21 Este 0 -- -- 93
2019-04-12 03:00:00 3 17 Este 22 Este 0 -- -- 91
2019-04-12 02:00:00 3.1 16 Este 30 Este 0 -- -- 91
2019-04-12 01:00:00 3.7 15 Este 25 Este 0 -- -- 86
2019-04-12 00:00:00 4.4 17 Este 25 Este 0 -- -- 84
2019-04-11 23:00:00 5.6 18 Este 28 Este 0 -- -- 79
2019-04-11 22:00:00 6.3 21 Este 29 Este 0 -- -- 76
2019-04-11 21:00:00 8 9 Este 11 Este 0 -- -- 59
2019-04-11 20:00:00 10.9 7 Nordeste 15 Norte 0 -- -- 45
2019-04-11 19:00:00 12.5 4 Noroeste 12 Norte 0 -- -- 41
2019-04-11 18:00:00 13 6 Noroeste 15 Norte 0 -- -- 40
2019-04-11 17:00:00 11.4 9 Norte 18 Noroeste 0 -- -- 41
2019-04-11 16:00:00 11.3 4 Norte 14 Noroeste 0 -- -- 41
2019-04-11 15:00:00 10.4 3 Sur 16 Noroeste 0 -- -- 48
2019-04-11 14:00:00 9.3 8 Noroeste 22 Oeste 0 -- -- 52
2019-04-11 13:00:00 8.9 8 Noroeste 28 Oeste 0 -- -- 56
2019-04-11 12:00:00 7.7 9 Oeste 17 Oeste 0 -- -- 61
2019-04-11 11:00:00 5.9 9 Oeste 14 Sudoeste 0 -- -- 78
2019-04-11 10:00:00 4.9 8 Sudoeste 11 Sur 0 -- -- 87
2019-04-11 09:00:00 1.4 4 Sudoeste 5 Sudoeste 0 -- -- 97
2019-04-11 08:00:00 0.4 4 Noroeste 6 Noroeste 0 -- -- 97
2019-04-11 07:00:00 0.9 0 Calma 6 Norte 0 -- -- 97
2019-04-11 06:00:00 0.6 6 Norte 7 Norte 0 -- -- 97
2019-04-11 05:00:00 0 6 Noroeste 12 Noroeste 0 -- -- 96
2019-04-11 04:00:00 0 6 Nordeste 13 Este 0 -- -- 91
2019-04-11 03:00:00 1.2 10 Este 17 Este 0 -- -- 88
2019-04-11 02:00:00 2.3 11 Este 19 Este 0 -- -- 86
2019-04-11 01:00:00 3.4 15 Este 23 Este 0 -- -- 85
2019-04-11 00:00:00 4 13 Este 20 Nordeste 0 -- -- 88
2019-04-10 23:00:00 3.9 14 Este 19 Nordeste 0 -- -- 88
2019-04-10 22:00:00 4.9 13 Nordeste 27 Nordeste 0 -- -- 82
2019-04-10 21:00:00 6.2 15 Nordeste 26 Nordeste 0 -- -- 80
2019-04-10 20:00:00 8 23 Nordeste 35 Norte 0 -- -- 71
2019-04-10 19:00:00 11.1 13 Norte 45 Nordeste 0 -- -- 49
2019-04-10 18:00:00 11.2 9 Norte 22 Noroeste 0 -- -- 57
2019-04-10 17:00:00 9.5 13 Norte 22 Norte 0 -- -- 65
2019-04-10 16:00:00 8.4 10 Nordeste 16 Este 0 -- -- 75
2019-04-10 15:00:00 6.1 6 Nordeste 9 Nordeste 0 -- -- 84
2019-04-10 14:00:00 5 6 Noroeste 18 Oeste 1.4 -- -- 86
2019-04-10 13:00:00 6 14 Noroeste 26 Noroeste 0 -- -- 77
2019-04-10 12:00:00 6.4 16 Oeste 23 Oeste 0 -- -- 78
2019-04-10 11:00:00 4.7 13 Oeste 24 Oeste 0.1 -- -- 86
2019-04-10 10:00:00 3.7 17 Oeste 30 Oeste 0 -- -- 88
2019-04-10 09:00:00 3.2 21 Oeste 33 Oeste 0 -- -- 94
2019-04-10 08:00:00 2.6 20 Oeste 29 Oeste 0 -- -- 98
2019-04-10 07:00:00 2.4 22 Oeste 32 Oeste 0 -- -- 98
2019-04-10 06:00:00 2.1 21 Oeste 30 Oeste 0 -- -- 98
2019-04-10 05:00:00 1.8 18 Oeste 30 Oeste 0 -- -- 97
2019-04-10 04:00:00 1.8 21 Oeste 34 Oeste 0 -- -- 96
2019-04-10 03:00:00 2.3 26 Oeste 40 Oeste 0 -- -- 95
2019-04-10 02:00:00 3 24 Oeste 36 Oeste 0 -- -- 94
2019-04-10 01:00:00 4.1 22 Oeste 39 Oeste 0 -- -- 92
2019-04-10 00:00:00 4.1 24 Oeste 39 Oeste 0 -- -- 92
2019-04-09 23:00:00 4.9 28 Oeste 40 Oeste 0 -- -- 82
2019-04-09 22:00:00 5.7 26 Oeste 42 Oeste 0 -- -- 75
2019-04-09 21:00:00 6.3 26 Oeste 44 Oeste 0 -- -- 70
2019-04-09 20:00:00 8.3 32 Oeste 46 Oeste 0 -- -- 63
2019-04-09 19:00:00 6.9 33 Oeste 47 Oeste 0 -- -- 72
2019-04-09 18:00:00 9.2 30 Oeste 44 Oeste 0 -- -- 61
2019-04-09 17:00:00 9.6 32 Oeste 45 Oeste 0 -- -- 63
2019-04-09 16:00:00 8.9 32 Oeste 47 Oeste 0 -- -- 73
2019-04-09 15:00:00 8.2 28 Oeste 43 Oeste 0 -- -- 76
2019-04-09 14:00:00 5.5 32 Oeste 42 Oeste 0 -- -- 90
2019-04-09 13:00:00 5 27 Oeste 48 Oeste 1 -- -- 93
2019-04-09 12:00:00 5.8 23 Sudoeste 36 Oeste 0 -- -- 88
2019-04-09 11:00:00 5.5 24 Sudoeste 77 Oeste 0 -- -- 90
2019-04-09 10:00:00 4.3 19 Sudoeste 30 Sudoeste 0 -- -- 96
2019-04-09 09:00:00 3.8 19 Sudoeste 28 Sudoeste 0 -- -- 96
2019-04-09 08:00:00 2.8 19 Sudoeste 25 Sur 0 -- -- 96
2019-04-09 07:00:00 2.9 11 Sudoeste 24 Sudoeste 0 -- -- 95
2019-04-09 06:00:00 3.6 15 Sudoeste 27 Oeste 0 -- -- 94
2019-04-09 05:00:00 2.5 15 Sudoeste 26 Oeste 0 -- -- 96
2019-04-09 04:00:00 2.8 17 Oeste 29 Oeste 0 -- -- 94
2019-04-09 03:00:00 3 18 Oeste 26 Sudoeste 0 -- -- 91
2019-04-09 02:00:00 3.5 21 Oeste 28 Sudoeste 0 -- -- 90
2019-04-09 01:00:00 3.1 16 Sudoeste 26 Oeste 0 -- -- 91
2019-04-09 00:00:00 4 17 Oeste 28 Oeste 0 -- -- 86
2019-04-08 23:00:00 4.8 19 Oeste 29 Oeste 0 -- -- 81
2019-04-08 22:00:00 5.5 20 Oeste 35 Oeste 0 -- -- 75
2019-04-08 21:00:00 7.5 27 Oeste 39 Oeste 0 -- -- 59
2019-04-08 20:00:00 9.3 20 Oeste 33 Oeste 0 -- -- 51
2019-04-08 19:00:00 10.8 26 Oeste 37 Oeste 0 -- -- 46
2019-04-08 18:00:00 12.4 21 Oeste 37 Oeste 0 -- -- 47
2019-04-08 17:00:00 12.4 23 Oeste 38 Oeste 0 -- -- 43
2019-04-08 16:00:00 11.5 23 Oeste 36 Oeste 0 -- -- 45
2019-04-08 15:00:00 11.3 24 Oeste 37 Oeste 0 -- -- 46
2019-04-08 14:00:00 9.2 15 Noroeste 39 Oeste 0 -- -- 69
2019-04-08 13:00:00 8.3 18 Oeste 28 Oeste 0 -- -- 66
2019-04-08 12:00:00 8.6 22 Oeste 52 Oeste 0 -- -- 76
2019-04-08 11:00:00 7.8 25 Oeste 36 Oeste 0 -- -- 85
2019-04-08 10:00:00 6.8 24 Oeste 35 Oeste 0 -- -- 92
2019-04-08 09:00:00 6.4 24 Oeste 33 Oeste 0 -- -- 94
2019-04-08 08:00:00 5.9 23 Oeste 36 Oeste 0 -- -- 95
2019-04-08 07:00:00 6.9 24 Oeste 35 Oeste 0 -- -- 97
2019-04-08 06:00:00 6.3 16 Sudoeste 24 Sudoeste 0.1 -- -- 98
2019-04-08 05:00:00 6.2 14 Sudoeste 24 Sudoeste 0.4 -- -- 98
2019-04-08 04:00:00 5.9 17 Sudoeste 22 Sudoeste 0 -- -- 98
2019-04-08 03:00:00 6.1 18 Sudoeste 28 Sudoeste 0 -- -- 99
2019-04-08 02:00:00 5.5 21 Sudoeste 30 Sudoeste 0 -- -- 98
2019-04-08 01:00:00 4.7 17 Sudoeste 31 Sur 0 -- -- 98
2019-04-08 00:00:00 4.1 21 Sur 31 Sur 0 -- -- 98
2019-04-07 23:00:00 4.2 20 Sur 30 Sur 0.1 -- -- 98
2019-04-07 22:00:00 4.2 8 Sudeste 18 Sur 0.4 -- -- 98
2019-04-07 21:00:00 4.2 12 Sudoeste 20 Sudoeste 0.8 -- -- 96
2019-04-07 20:00:00 4.4 17 Sudoeste 30 Oeste 0.5 -- -- 95
2019-04-07 19:00:00 5.2 24 Oeste 38 Oeste 0.3 -- -- 88
2019-04-07 18:00:00 7.8 13 Oeste 44 Oeste 0 -- -- 63
2019-04-07 17:00:00 9.5 20 Sudoeste 31 Oeste 0 -- -- 45
2019-04-07 16:00:00 9.6 19 Sudoeste 30 Sudoeste 0 -- -- 46
2019-04-07 15:00:00 9.1 16 Sudoeste 28 Sudoeste 0 -- -- 45
2019-04-07 14:00:00 8.8 14 Oeste 30 Oeste 0 -- -- 48
2019-04-07 13:00:00 7.2 15 Oeste 26 Oeste 0 -- -- 56
2019-04-07 12:00:00 5.4 19 Oeste 36 Oeste 0 -- -- 68
2019-04-07 11:00:00 4 25 Noroeste 36 Oeste 0 -- -- 72
2019-04-07 10:00:00 2.7 23 Oeste 34 Oeste 0 -- -- 85
2019-04-07 09:00:00 0.8 19 Oeste 32 Oeste 0 -- -- 97
2019-04-07 08:00:00 -0.5 21 Oeste 30 Oeste 0 -- -- 98
2019-04-07 07:00:00 -0.2 21 Oeste 31 Oeste 0 -- -- 98
2019-04-07 06:00:00 -0.4 21 Oeste 35 Oeste 0 -- -- 98
2019-04-07 05:00:00 -0.1 25 Oeste 36 Oeste 0 -- -- 97
2019-04-07 04:00:00 0.4 23 Oeste 37 Oeste 0 -- -- 95
2019-04-07 03:00:00 0.7 24 Oeste 36 Oeste 0 -- -- 95
2019-04-07 02:00:00 0.9 26 Oeste 39 Oeste 0 -- -- 91
2019-04-07 01:00:00 1.1 29 Oeste 39 Oeste 0 -- -- 89
2019-04-07 00:00:00 1.5 25 Oeste 34 Oeste 0 -- -- 86
2019-04-06 23:00:00 1.9 21 Oeste 36 Oeste 0 -- -- 80
2019-04-06 22:00:00 3.5 22 Oeste 37 Oeste 0 -- -- 74
2019-04-06 21:00:00 4.5 25 Oeste 38 Oeste 0.1 -- -- 78
2019-04-06 20:00:00 4.9 24 Oeste 46 Oeste 0 -- -- 79
2019-04-06 19:00:00 3.2 12 Oeste 32 Oeste 2.3 -- -- 94
2019-04-06 18:00:00 3.6 9 Noroeste 55 Oeste 0 -- -- 79
2019-04-06 17:00:00 6.6 41 Oeste 58 Oeste 0 -- -- 65
2019-04-06 16:00:00 6.9 40 Oeste 56 Oeste 0 -- -- 65
2019-04-06 15:00:00 5.3 37 Oeste 53 Oeste 0 -- -- 73
2019-04-06 14:00:00 4 37 Oeste 57 Oeste 0 -- -- 81
2019-04-06 13:00:00 3.6 38 Oeste 54 Sudoeste 0 -- -- 84
2019-04-06 12:00:00 3.8 35 Sudoeste 47 Sudoeste 0 -- -- 82
2019-04-06 11:00:00 3.5 34 Sudoeste 50 Sudoeste 0 -- -- 82
2019-04-06 10:00:00 2.6 31 Sudoeste 44 Oeste 0 -- -- 91
2019-04-06 09:00:00 1.9 25 Sudoeste 33 Sudoeste 0 -- -- 98
2019-04-06 08:00:00 0.8 21 Sudoeste 30 Sudoeste 0.1 -- -- 97
2019-04-06 07:00:00 1.2 24 Sudoeste 37 Sudoeste 0 -- -- 96
2019-04-06 06:00:00 0.6 20 Oeste 30 Oeste 0 -- -- 97
2019-04-06 05:00:00 0.8 24 Oeste 36 Oeste 0 -- -- 97
2019-04-06 04:00:00 1.4 24 Oeste 37 Oeste 0 -- -- 97
2019-04-06 03:00:00 1.4 25 Oeste 34 Oeste 0 -- -- 97
2019-04-06 02:00:00 1.3 23 Oeste 32 Oeste 0 -- -- 96
2019-04-06 01:00:00 1.5 20 Sudoeste 27 Sudoeste 0 -- -- 95
2019-04-06 00:00:00 1.6 15 Oeste 24 Oeste 0 -- -- 93
2019-04-05 23:00:00 1 14 Oeste 18 Oeste 0 -- -- 94
2019-04-05 22:00:00 1.9 11 Sudoeste 16 Sudoeste 0 -- -- 94
2019-04-05 21:00:00 3.5 10 Sudoeste 32 Sur 0 -- -- 82
2019-04-05 20:00:00 5.7 17 Sur 28 Sudoeste 0.1 -- -- 78
2019-04-05 19:00:00 7 17 Oeste 44 Oeste 0 -- -- 48
2019-04-05 18:00:00 6.8 20 Oeste 33 Oeste 0 -- -- 52
2019-04-05 17:00:00 6.3 21 Oeste 33 Oeste 0 -- -- 59
2019-04-05 16:00:00 5.1 20 Oeste 30 Oeste 0 -- -- 68
2019-04-05 15:00:00 4.9 14 Noroeste 33 Oeste 0.1 -- -- 75
2019-04-05 14:00:00 5.4 12 Sudoeste 28 Sudoeste 0 -- -- 68
2019-04-05 13:00:00 5.2 17 Sudoeste 26 Oeste 0.1 -- -- 72
2019-04-05 12:00:00 4.6 17 Oeste 29 Oeste 0 -- -- 79
2019-04-05 11:00:00 3.7 23 Sudoeste 31 Oeste 0 -- -- 84
2019-04-05 10:00:00 2.8 21 Sudoeste 30 Sudoeste 0 -- -- 95
2019-04-05 09:00:00 2.5 11 Oeste 33 Oeste 0 -- -- 97
2019-04-05 08:00:00 2.1 24 Oeste 34 Sudoeste 1 -- -- 98
2019-04-05 07:00:00 3.2 18 Sudoeste 27 Sudoeste 0 -- -- 99
2019-04-05 06:00:00 2.7 16 Sudoeste 26 Sur 0 -- -- 99
2019-04-05 05:00:00 2 20 Sur 39 Sudoeste 0.4 -- -- 98
2019-04-05 04:00:00 2.2 30 Sudoeste 44 Sudoeste 0.8 -- -- 96
2019-04-05 03:00:00 2.8 23 Sur 32 Sur 0 -- -- 97
2019-04-05 02:00:00 2.9 24 Sur 33 Sur 0 -- -- 98
2019-04-05 01:00:00 2.8 13 Sur 22 Sudoeste 0 -- -- 98
2019-04-05 00:00:00 2.6 13 Sudoeste 19 Sudoeste 0.1 -- -- 98
2019-04-04 23:00:00 2.7 12 Sudoeste 17 Sudoeste 0.4 -- -- 96
2019-04-04 22:00:00 2.7 13 Sudoeste 27 Oeste 0.3 -- -- 95
2019-04-04 21:00:00 2.9 22 Oeste 45 Oeste 0 -- -- 89
2019-04-04 20:00:00 4.5 24 Oeste 44 Oeste 0 -- -- 65
2019-04-04 19:00:00 6.6 27 Oeste 45 Oeste 0 -- -- 41
2019-04-04 18:00:00 8.6 28 Oeste 45 Oeste 0 -- -- 37
2019-04-04 17:00:00 9.8 23 Sudoeste 40 Sudoeste 0 -- -- 37
2019-04-04 16:00:00 -- 0 Calma -- -- 0 -- -- --
2019-04-04 15:00:00 -- 0 Calma -- -- 0 -- -- --
2019-04-04 14:00:00 -- -- -- -- -- -- -- -- --
2019-04-04 13:00:00 -- -- -- -- -- -- -- -- --
2019-04-04 12:00:00 -- -- -- -- -- -- -- -- --
2019-04-04 11:00:00 -- -- -- -- -- -- -- -- --
2019-04-04 10:00:00 -- -- -- -- -- -- -- -- --
2019-04-04 09:00:00 -- -- -- -- -- -- -- -- --
2019-04-04 08:00:00 -- -- -- -- -- -- -- -- --
2019-04-04 07:00:00 -- -- -- -- -- -- -- -- --
2019-04-04 06:00:00 -- -- -- -- -- -- -- -- --
2019-04-04 05:00:00 -- -- -- -- -- -- -- -- --
2019-04-04 04:00:00 -- -- -- -- -- -- -- -- --
2019-04-04 03:00:00 -- -- -- -- -- -- -- -- --
2019-04-04 02:00:00 -- -- -- -- -- -- -- -- --
2019-04-04 01:00:00 -- -- -- -- -- -- -- -- --
2019-04-04 00:00:00 -- -- -- -- -- -- -- -- --
2019-04-03 23:00:00 -- -- -- -- -- -- -- -- --
2019-04-03 22:00:00 -- -- -- -- -- -- -- -- --
2019-04-03 21:00:00 -- -- -- -- -- -- -- -- --
2019-04-03 20:00:00 -- -- -- -- -- -- -- -- --
2019-04-03 19:00:00 -- -- -- -- -- -- -- -- --
2019-04-03 18:00:00 -- -- -- -- -- -- -- -- --
2019-04-03 17:00:00 -- -- -- -- -- -- -- -- --
2019-04-03 16:00:00 -- -- -- -- -- -- -- -- --
2019-04-03 15:00:00 -- -- -- -- -- -- -- -- --
2019-04-03 14:00:00 -- -- -- -- -- -- -- -- --
2019-04-03 13:00:00 -- -- -- -- -- -- -- -- --
2019-04-03 12:00:00 -- -- -- -- -- -- -- -- --
2019-04-03 11:00:00 -- -- -- -- -- -- -- -- --
2019-04-03 10:00:00 -- -- -- -- -- -- -- -- --
2019-04-03 09:00:00 -- -- -- -- -- -- -- -- --
2019-04-03 08:00:00 -- -- -- -- -- -- -- -- --
2019-04-03 07:00:00 -- -- -- -- -- -- -- -- --
2019-04-03 06:00:00 -- -- -- -- -- -- -- -- --
2019-04-03 05:00:00 -- -- -- -- -- -- -- -- --
2019-04-03 04:00:00 -- -- -- -- -- -- -- -- --
2019-04-03 03:00:00 -- -- -- -- -- -- -- -- --
2019-04-03 02:00:00 -- -- -- -- -- -- -- -- --
2019-04-03 01:00:00 -- -- -- -- -- -- -- -- --
2019-04-03 00:00:00 -- -- -- -- -- -- -- -- --
2019-04-02 23:00:00 -- -- -- -- -- -- -- -- --
2019-04-02 22:00:00 -- -- -- -- -- -- -- -- --
2019-04-02 21:00:00 -- -- -- -- -- -- -- -- --
2019-04-02 20:00:00 -- -- -- -- -- -- -- -- --
2019-04-02 19:00:00 -- -- -- -- -- -- -- -- --
2019-04-02 18:00:00 -- -- -- -- -- -- -- -- --
2019-04-02 17:00:00 -- -- -- -- -- -- -- -- --
2019-04-02 16:00:00 -- -- -- -- -- -- -- -- --
2019-04-02 15:00:00 -- -- -- -- -- -- -- -- --
2019-04-02 14:00:00 -- -- -- -- -- -- -- -- --
2019-04-02 13:00:00 -- -- -- -- -- -- -- -- --
2019-04-02 12:00:00 -- -- -- -- -- -- -- -- --
2019-04-02 11:00:00 -- -- -- -- -- -- -- -- --
2019-04-02 10:00:00 -- -- -- -- -- -- -- -- --
2019-04-02 09:00:00 -- -- -- -- -- -- -- -- --
2019-04-02 08:00:00 -- -- -- -- -- -- -- -- --
2019-04-02 07:00:00 -- -- -- -- -- -- -- -- --
2019-04-02 06:00:00 -- -- -- -- -- -- -- -- --
2019-04-02 05:00:00 -- -- -- -- -- -- -- -- --
2019-04-02 04:00:00 -- -- -- -- -- -- -- -- --
2019-04-02 03:00:00 -- -- -- -- -- -- -- -- --
2019-04-02 02:00:00 -- -- -- -- -- -- -- -- --
2019-04-02 01:00:00 -- -- -- -- -- -- -- -- --
2019-04-02 00:00:00 -- -- -- -- -- -- -- -- --
2019-04-01 23:00:00 -- -- -- -- -- -- -- -- --
2019-04-01 22:00:00 -- -- -- -- -- -- -- -- --
2019-04-01 21:00:00 -- -- -- -- -- -- -- -- --
2019-04-01 20:00:00 -- -- -- -- -- -- -- -- --
2019-04-01 19:00:00 -- -- -- -- -- -- -- -- --
2019-04-01 18:00:00 -- -- -- -- -- -- -- -- --
2019-04-01 17:00:00 -- -- -- -- -- -- -- -- --
2019-04-01 16:00:00 -- -- -- -- -- -- -- -- --
2019-04-01 15:00:00 -- -- -- -- -- -- -- -- --
2019-04-01 14:00:00 -- -- -- -- -- -- -- -- --
2019-04-01 13:00:00 -- -- -- -- -- -- -- -- --
2019-04-01 12:00:00 -- -- -- -- -- -- -- -- --
2019-04-01 11:00:00 -- -- -- -- -- -- -- -- --
2019-04-01 10:00:00 -- -- -- -- -- -- -- -- --
2019-04-01 09:00:00 -- -- -- -- -- -- -- -- --
2019-04-01 08:00:00 -- -- -- -- -- -- -- -- --
2019-04-01 07:00:00 -- -- -- -- -- -- -- -- --
2019-04-01 06:00:00 -- -- -- -- -- -- -- -- --
2019-04-01 05:00:00 -- -- -- -- -- -- -- -- --
2019-04-01 04:00:00 -- -- -- -- -- -- -- -- --
2019-04-01 03:00:00 -- -- -- -- -- -- -- -- --
2019-04-01 02:00:00 -- -- -- -- -- -- -- -- --
2019-04-01 01:00:00 -- -- -- -- -- -- -- -- --
2019-04-01 00:00:00 -- -- -- -- -- -- -- -- --
2019-03-31 23:00:00 -- -- -- -- -- -- -- -- --
2019-03-31 22:00:00 -- -- -- -- -- -- -- -- --
2019-03-31 21:00:00 -- -- -- -- -- -- -- -- --
2019-03-31 20:00:00 -- -- -- -- -- -- -- -- --
2019-03-31 19:00:00 -- -- -- -- -- -- -- -- --
2019-03-31 18:00:00 -- -- -- -- -- -- -- -- --
2019-03-31 17:00:00 -- -- -- -- -- -- -- -- --
2019-03-31 16:00:00 -- -- -- -- -- -- -- -- --
2019-03-31 15:00:00 -- -- -- -- -- -- -- -- --
2019-03-31 14:00:00 -- -- -- -- -- -- -- -- --
2019-03-31 13:00:00 -- -- -- -- -- -- -- -- --
2019-03-31 12:00:00 -- -- -- -- -- -- -- -- --
2019-03-31 11:00:00 -- -- -- -- -- -- -- -- --
2019-03-31 10:00:00 -- -- -- -- -- -- -- -- --
2019-03-31 09:00:00 -- -- -- -- -- -- -- -- --
2019-03-31 08:00:00 -- -- -- -- -- -- -- -- --
2019-03-31 07:00:00 -- -- -- -- -- -- -- -- --
2019-03-31 06:00:00 -- -- -- -- -- -- -- -- --
2019-03-31 05:00:00 -- -- -- -- -- -- -- -- --
2019-03-31 03:00:00 -- -- -- -- -- -- -- -- --
2019-03-31 01:00:00 -- -- -- -- -- -- -- -- --
2019-03-31 00:00:00 -- -- -- -- -- -- -- -- --
2019-03-30 23:00:00 -- -- -- -- -- -- -- -- --
2019-03-30 22:00:00 -- -- -- -- -- -- -- -- --
2019-03-30 21:00:00 -- -- -- -- -- -- -- -- --
2019-03-30 20:00:00 -- -- -- -- -- -- -- -- --
2019-03-30 19:00:00 -- -- -- -- -- -- -- -- --
2019-03-30 18:00:00 -- -- -- -- -- -- -- -- --
2019-03-30 17:00:00 -- -- -- -- -- -- -- -- --
2019-03-30 16:00:00 -- -- -- -- -- -- -- -- --
2019-03-30 15:00:00 -- -- -- -- -- -- -- -- --
2019-03-30 14:00:00 -- -- -- -- -- -- -- -- --
2019-03-30 13:00:00 -- -- -- -- -- -- -- -- --
2019-03-30 12:00:00 -- -- -- -- -- -- -- -- --
2019-03-30 11:00:00 -- -- -- -- -- -- -- -- --
2019-03-30 10:00:00 -- -- -- -- -- -- -- -- --
2019-03-30 09:00:00 -- -- -- -- -- -- -- -- --
2019-03-30 08:00:00 -- -- -- -- -- -- -- -- --
2019-03-30 07:00:00 -- -- -- -- -- -- -- -- --
2019-03-30 06:00:00 -- -- -- -- -- -- -- -- --
2019-03-30 05:00:00 -- -- -- -- -- -- -- -- --
2019-03-30 04:00:00 -- -- -- -- -- -- -- -- --
2019-03-30 03:00:00 -- -- -- -- -- -- -- -- --
2019-03-30 02:00:00 -- -- -- -- -- -- -- -- --
2019-03-30 01:00:00 -- -- -- -- -- -- -- -- --
2019-03-30 00:00:00 -- -- -- -- -- -- -- -- --
2019-03-29 23:00:00 -- -- -- -- -- -- -- -- --
2019-03-29 22:00:00 -- -- -- -- -- -- -- -- --
2019-03-29 21:00:00 -- -- -- -- -- -- -- -- --
2019-03-29 20:00:00 -- -- -- -- -- -- -- -- --
2019-03-29 19:00:00 -- -- -- -- -- -- -- -- --
2019-03-29 18:00:00 -- -- -- -- -- -- -- -- --
2019-03-29 17:00:00 -- -- -- -- -- -- -- -- --
2019-03-29 16:00:00 -- -- -- -- -- -- -- -- --
2019-03-29 15:00:00 -- -- -- -- -- -- -- -- --
2019-03-29 14:00:00 -- -- -- -- -- -- -- -- --
2019-03-29 13:00:00 -- -- -- -- -- -- -- -- --
2019-03-29 12:00:00 -- -- -- -- -- -- -- -- --
2019-03-29 11:00:00 -- -- -- -- -- -- -- -- --
2019-03-29 10:00:00 -- -- -- -- -- -- -- -- --
2019-03-29 09:00:00 -- -- -- -- -- -- -- -- --
2019-03-29 08:00:00 -- -- -- -- -- -- -- -- --
2019-03-29 07:00:00 -- -- -- -- -- -- -- -- --
2019-03-29 06:00:00 -- -- -- -- -- -- -- -- --
2019-03-29 05:00:00 -- -- -- -- -- -- -- -- --
2019-03-29 04:00:00 -- -- -- -- -- -- -- -- --
2019-03-29 03:00:00 -- -- -- -- -- -- -- -- --
2019-03-29 02:00:00 -- -- -- -- -- -- -- -- --
2019-03-29 01:00:00 -- -- -- -- -- -- -- -- --
2019-03-29 00:00:00 -- -- -- -- -- -- -- -- --
2019-03-28 23:00:00 -- -- -- -- -- -- -- -- --
2019-03-28 22:00:00 -- -- -- -- -- -- -- -- --
2019-03-28 21:00:00 -- -- -- -- -- -- -- -- --
2019-03-28 20:00:00 -- -- -- -- -- -- -- -- --
2019-03-28 19:00:00 -- -- -- -- -- -- -- -- --
2019-03-28 18:00:00 -- -- -- -- -- -- -- -- --
2019-03-28 17:00:00 -- -- -- -- -- -- -- -- --
2019-03-28 16:00:00 -- -- -- -- -- -- -- -- --
2019-03-28 15:00:00 -- -- -- -- -- -- -- -- --
2019-03-28 14:00:00 -- -- -- -- -- -- -- -- --
2019-03-28 13:00:00 -- -- -- -- -- -- -- -- --
2019-03-28 12:00:00 -- -- -- -- -- -- -- -- --
2019-03-28 11:00:00 -- -- -- -- -- -- -- -- --
2019-03-28 10:00:00 -- -- -- -- -- -- -- -- --
2019-03-28 09:00:00 -- -- -- -- -- -- -- -- --
2019-03-28 08:00:00 -- -- -- -- -- -- -- -- --
2019-03-28 07:00:00 -- -- -- -- -- -- -- -- --
2019-03-28 06:00:00 -- -- -- -- -- -- -- -- --
2019-03-28 05:00:00 -- -- -- -- -- -- -- -- --
2019-03-28 04:00:00 -- -- -- -- -- -- -- -- --
2019-03-28 03:00:00 -- -- -- -- -- -- -- -- --
2019-03-28 02:00:00 -- -- -- -- -- -- -- -- --
2019-03-28 01:00:00 -- -- -- -- -- -- -- -- --
2019-03-28 00:00:00 -- -- -- -- -- -- -- -- --
2019-03-27 23:00:00 -- -- -- -- -- -- -- -- --
2019-03-27 22:00:00 -- -- -- -- -- -- -- -- --
2019-03-27 21:00:00 -- -- -- -- -- -- -- -- --
2019-03-27 20:00:00 -- -- -- -- -- -- -- -- --
2019-03-27 19:00:00 -- -- -- -- -- -- -- -- --
2019-03-27 18:00:00 -- -- -- -- -- -- -- -- --
2019-03-27 17:00:00 -- -- -- -- -- -- -- -- --
2019-03-27 16:00:00 -- -- -- -- -- -- -- -- --
2019-03-27 15:00:00 -- -- -- -- -- -- -- -- --
2019-03-27 14:00:00 -- -- -- -- -- -- -- -- --
2019-03-27 13:00:00 -- -- -- -- -- -- -- -- --
2019-03-27 12:00:00 -- 0 Calma -- -- 0 -- -- --
2019-03-27 11:00:00 -- 0 Calma -- -- 0 -- -- --
2019-03-27 10:00:00 -- 0 Calma -- -- 0 -- -- --
2019-03-27 09:00:00 -- 0 Calma -- -- 0 -- -- --
2019-03-27 08:00:00 -- 0 Calma -- -- 0 -- -- --
2019-03-27 07:00:00 -- 0 Calma -- -- 0 -- -- --
2019-03-27 06:00:00 -- 0 Calma -- -- 0 -- -- --
2019-03-27 05:00:00 -- 0 Calma -- -- 0 -- -- --
2019-03-27 04:00:00 -- 0 Calma -- -- 0 -- -- --
2019-03-27 03:00:00 -- 0 Calma -- -- 0 -- -- --
2019-03-27 02:00:00 -- 0 Calma -- -- 0 -- -- --
2019-03-27 01:00:00 -- 0 Calma -- -- 0 -- -- --
2019-03-27 00:00:00 -- 0 Calma -- -- 0 -- -- --
2019-03-26 23:00:00 -- 0 Calma -- -- 0 -- -- --
2019-03-26 22:00:00 -- 0 Calma -- -- 0 -- -- --
2019-03-26 21:00:00 -- 0 Calma -- -- 0 -- -- --
2019-03-26 20:00:00 -- 0 Calma -- -- 0 -- -- --
2019-03-26 19:00:00 -- 0 Calma -- -- 0 -- -- --
2019-03-26 18:00:00 -- 0 Calma -- -- 0 -- -- --
2019-03-26 17:00:00 -- 0 Calma -- -- 0 -- -- --
2019-03-26 16:00:00 -- 0 Calma -- -- 0 -- -- --
2019-03-26 15:00:00 -- 0 Calma -- -- 0 -- -- --
2019-03-26 14:00:00 -- 0 Calma -- -- 0 -- -- --
2019-03-26 13:00:00 -- 0 Calma -- -- 0 -- -- --
2019-03-26 12:00:00 -- 9 Este 54 Este 0 -- -- --
2019-03-26 11:00:00 8.6 32 Este 55 Este 0 -- -- 42
2019-03-26 10:00:00 6.4 30 Este 46 Este 0 -- -- 55
2019-03-26 09:00:00 3.7 23 Nordeste 43 Este 0 -- -- 71
2019-03-26 08:00:00 2.2 33 Este 51 Este 0 -- -- 79
2019-03-26 07:00:00 1.8 33 Este 50 Nordeste 0 -- -- 83
2019-03-26 06:00:00 2.4 29 Este 49 Este 0 -- -- 84
2019-03-26 05:00:00 2.7 31 Este 46 Este 0 -- -- 84
2019-03-26 04:00:00 2.4 39 Este 50 Este 0 -- -- 84
2019-03-26 03:00:00 1.9 32 Nordeste 46 Nordeste 0 -- -- 81
2019-03-26 02:00:00 1.2 24 Este 43 Este 0 -- -- 82
2019-03-26 01:00:00 1.5 27 Nordeste 48 Este 0 -- -- 81
2019-03-26 00:00:00 1.9 27 Nordeste 43 Este 0 -- -- 78
2019-03-25 23:00:00 2.8 32 Nordeste 50 Nordeste 0 -- -- 81
2019-03-25 22:00:00 3.7 31 Nordeste 42 Nordeste 0 -- -- 71
2019-03-25 21:00:00 5.2 23 Nordeste 36 Nordeste 0 -- -- 64
2019-03-25 20:00:00 6.8 26 Nordeste 46 Nordeste 0 -- -- 49
2019-03-25 19:00:00 8.8 31 Nordeste 49 Nordeste 0 -- -- 47
2019-03-25 18:00:00 10.8 34 Nordeste 50 Este 0 -- -- 46
2019-03-25 17:00:00 12.1 35 Nordeste 50 Nordeste 0 -- -- 46
2019-03-25 16:00:00 12.6 32 Nordeste 100 Nordeste 0 -- -- 46
2019-03-25 15:00:00 12.3 33 Nordeste 50 Nordeste 0 -- -- 45
2019-03-25 14:00:00 11.9 30 Nordeste 45 Nordeste 0 -- -- 48
2019-03-25 13:00:00 10.8 31 Nordeste 45 Nordeste 0 -- -- 53
2019-03-25 12:00:00 10 33 Este 46 Este 0 -- -- 58
2019-03-25 11:00:00 8.7 33 Este 48 Este 0 -- -- 62
2019-03-25 10:00:00 7.1 33 Este 47 Este 0 -- -- 74
2019-03-25 09:00:00 5.9 26 Este 37 Este 0 -- -- 84
2019-03-25 08:00:00 3.9 21 Este 34 Este 0 -- -- 93
2019-03-25 07:00:00 2.7 25 Este 32 Este 0 -- -- 96
2019-03-25 06:00:00 3.2 23 Este 30 Este 0 -- -- 87
2019-03-25 05:00:00 3.9 21 Este 26 Este 0 -- -- 83
2019-03-25 04:00:00 4.2 19 Este 29 Este 0 -- -- 82
2019-03-25 03:00:00 5 20 Este 30 Este 0 -- -- 80
2019-03-25 02:00:00 5.3 21 Este 28 Este 0 -- -- 81
2019-03-25 01:00:00 6.3 23 Este 31 Nordeste 0 -- -- 81
2019-03-25 00:00:00 7 26 Este 42 Este 0 -- -- 81
2019-03-24 23:00:00 8.2 24 Nordeste 33 Este 0 -- -- 75
2019-03-24 22:00:00 9.9 22 Nordeste 34 Nordeste 0 -- -- 72
2019-03-24 21:00:00 11.8 22 Nordeste 35 Nordeste 0 -- -- 64
2019-03-24 20:00:00 13.5 21 Nordeste 32 Este 0 -- -- 47
2019-03-24 19:00:00 16.4 14 Nordeste 30 Nordeste 0 -- -- 33
2019-03-24 18:00:00 18.4 17 Nordeste 25 Este 0 -- -- 31
2019-03-24 17:00:00 19.9 14 Este 28 Nordeste 0 -- -- 31
2019-03-24 16:00:00 19.1 18 Este 31 Este 0 -- -- 31
2019-03-24 15:00:00 18.8 17 Este 27 Este 0 -- -- 31
2019-03-24 14:00:00 19.1 15 Este 27 Este 0 -- -- 33
2019-03-24 13:00:00 17.3 13 Este 24 Este 0 -- -- 39
2019-03-24 12:00:00 15.7 9 Este 19 Este 0 -- -- 44
2019-03-24 11:00:00 13.2 10 Este 16 Este 0 -- -- 50
2019-03-24 10:00:00 11 9 Este 14 Este 0 -- -- 56
2019-03-24 09:00:00 8.6 10 Este 14 Este 0 -- -- 61
2019-03-24 08:00:00 6 10 Este 14 Este 0 -- -- 67
2019-03-24 07:00:00 4.7 11 Este 14 Este 0 -- -- 68
2019-03-24 06:00:00 3.9 10 Este 13 Este 0 -- -- 68
2019-03-24 05:00:00 5.5 12 Este 15 Este 0 -- -- 64
2019-03-24 04:00:00 5.1 14 Este 19 Este 0 -- -- 63
2019-03-24 03:00:00 6.2 14 Sudeste 17 Este 0 -- -- 59
2019-03-24 02:00:00 6.5 15 Este 18 Este 0 -- -- 58
2019-03-24 01:00:00 7.9 16 Este 20 Sudeste 0 -- -- 56
2019-03-24 00:00:00 7.1 13 Este 17 Nordeste 0 -- -- 58
2019-03-23 23:00:00 8.5 15 Nordeste 17 Nordeste 0 -- -- 52
2019-03-23 22:00:00 10.9 8 Este 14 Nordeste 0 -- -- 48
2019-03-23 21:00:00 11.9 8 Nordeste 14 Nordeste 0 -- -- 46
2019-03-23 20:00:00 11.9 12 Nordeste 16 Nordeste 0 -- -- 44
2019-03-23 19:00:00 15.7 8 Nordeste 15 Este 0 -- -- 37
2019-03-23 18:00:00 17.8 9 Este 16 Nordeste 0 -- -- 33
2019-03-23 17:00:00 18.4 9 Nordeste 23 Este 0 -- -- 35
2019-03-23 16:00:00 18.2 7 Este 22 Este 0 -- -- 37
2019-03-23 15:00:00 17.2 9 Este 23 Este 0 -- -- 38
2019-03-23 14:00:00 16.8 6 Este 18 Este 0 -- -- 41
2019-03-23 13:00:00 15.7 5 Este 13 Este 0 -- -- 42
2019-03-23 12:00:00 14.6 7 Este 15 Sudeste 0 -- -- 48
2019-03-23 11:00:00 12.3 11 Este 19 Sudeste 0 -- -- 53
2019-03-23 10:00:00 9.7 11 Sudeste 15 Sudeste 0 -- -- 58
2019-03-23 09:00:00 6.8 12 Este 14 Este 0 -- -- 65
2019-03-23 08:00:00 3.2 11 Este 13 Este 0 -- -- 75
2019-03-23 07:00:00 1.4 11 Este 14 Este 0 -- -- 74
2019-03-23 06:00:00 2.5 10 Este 19 Sudeste 0 -- -- 69
2019-03-23 05:00:00 3.5 14 Sudeste 22 Sudeste 0 -- -- 65
2019-03-23 04:00:00 5 19 Sudeste 25 Sudeste 0 -- -- 60
2019-03-23 03:00:00 5.2 18 Sudeste 22 Sudeste 0 -- -- 59
2019-03-23 02:00:00 4.8 13 Este 16 Este 0 -- -- 58
2019-03-23 01:00:00 4.9 14 Este 15 Este 0 -- -- 55
2019-03-23 00:00:00 5.1 10 Este 14 Nordeste 0 -- -- 53
2019-03-22 23:00:00 7 9 Nordeste 16 Nordeste 0 -- -- 47
2019-03-22 22:00:00 7.9 14 Nordeste 16 Nordeste 0 -- -- 47
2019-03-22 21:00:00 7.4 12 Nordeste 14 Nordeste 0 -- -- 47
2019-03-22 20:00:00 8.6 12 Nordeste 13 Nordeste 0 -- -- 43
2019-03-22 19:00:00 12.8 9 Nordeste 15 Nordeste 0 -- -- 37
2019-03-22 18:00:00 15.3 5 Noroeste 16 Nordeste 0 -- -- 33
2019-03-22 17:00:00 15.8 6 Nordeste 15 Este 0 -- -- 32
2019-03-22 16:00:00 15.3 5 Sur 19 Sudeste 0 -- -- 32
2019-03-22 15:00:00 14.3 5 Noroeste 15 Norte 0 -- -- 33
2019-03-22 14:00:00 14.1 6 Este 14 Sudeste 0 -- -- 35
2019-03-22 13:00:00 13.1 5 Este 21 Este 0 -- -- 39
2019-03-22 12:00:00 11 5 Este 13 Sudeste 0 -- -- 45
2019-03-22 11:00:00 9.1 5 Este 10 Sudeste 0 -- -- 51
2019-03-22 10:00:00 6.6 6 Sudeste 11 Sudeste 0 -- -- 57
2019-03-22 09:00:00 4 8 Este 11 Sudeste 0 -- -- 63
2019-03-22 08:00:00 0.4 10 Sudeste 13 Sudeste 0 -- -- 70
2019-03-22 07:00:00 -0.1 9 Sudeste 13 Este 0 -- -- 70
2019-03-22 06:00:00 0.2 10 Sudeste 15 Sudeste 0 -- -- 70
2019-03-22 05:00:00 0.5 14 Sudeste 16 Sudeste 0 -- -- 68
2019-03-22 04:00:00 1.2 13 Sudeste 15 Sudeste 0 -- -- 67
2019-03-22 03:00:00 1.9 12 Sudeste 18 Este 0 -- -- 67
2019-03-22 02:00:00 1.4 15 Este 18 Este 0 -- -- 74
2019-03-22 01:00:00 2.8 14 Este 22 Este 0 -- -- 71
2019-03-22 00:00:00 3.6 16 Este 20 Este 0 -- -- 68
2019-03-21 23:00:00 3.2 16 Este 20 Este 0 -- -- 68
2019-03-21 22:00:00 5 14 Este 20 Este 0 -- -- 61
2019-03-21 21:00:00 5.1 13 Este 18 Este 0 -- -- 56
2019-03-21 20:00:00 6.5 11 Este 17 Nordeste 0 -- -- 48
2019-03-21 19:00:00 10.6 8 Este 21 Este 0 -- -- 39
2019-03-21 18:00:00 12.6 12 Este 23 Este 0 -- -- 35
2019-03-21 17:00:00 13 13 Este 32 Este 0 -- -- 37
2019-03-21 16:00:00 12.4 13 Nordeste 27 Este 0 -- -- 38
2019-03-21 15:00:00 11.9 16 Este 31 Este 0 -- -- 39
2019-03-21 14:00:00 11.5 13 Este 29 Este 0 -- -- 42
2019-03-21 13:00:00 10.1 14 Este 33 Nordeste 0 -- -- 45
2019-03-21 12:00:00 8.5 16 Este 28 Este 0 -- -- 46
2019-03-21 11:00:00 7.4 14 Este 30 Este 0 -- -- 60
2019-03-21 10:00:00 4.7 18 Este 25 Este 0 -- -- 76
2019-03-21 09:00:00 2.3 15 Este 21 Este 0 -- -- 85
2019-03-21 08:00:00 -0.3 15 Este 20 Este 0 -- -- 96
2019-03-21 07:00:00 -1.8 13 Este 17 Este 0 -- -- 97
2019-03-21 06:00:00 -1.2 14 Nordeste 29 Este 0 -- -- 95
2019-03-21 05:00:00 -0.9 25 Este 32 Este 0 -- -- 95
2019-03-21 04:00:00 -0.4 24 Este 31 Este 0 -- -- 92
2019-03-21 03:00:00 -0.2 19 Este 28 Este 0 -- -- 89
2019-03-21 02:00:00 0 20 Este 30 Este 0 -- -- 83
2019-03-21 01:00:00 0.5 21 Este 30 Este 0 -- -- 74
2019-03-21 00:00:00 0.6 18 Este 35 Este 0 -- -- 68